Terminal Aerodrome Forecast
Issued by NWS

Home | Current Version | Previous Version | Text Only | Print | Product List | Glossary On
Versions: 1 2 3 4 5 6 7 8 9 10 11 12 13 14 15 16 17 18
000
FTUS43 KICT 010522
TAFHUT
TAF
KHUT 010522Z 0106/0206 12006KT P6SM FEW300
     FM011200 15011KT P6SM SCT300
     FM011600 16018G26KT P6SM SCT250
     FM020000 16014KT P6SM SCT200=

USA.gov is the U.S. government's official web portal to all federal, state and local government web resources and services.